Terminal Aerodrome Forecast
Issued by NWS

Home | Current Version | Previous Version | Text Only | Print | Product List | Glossary On
Versions: 1 2 3 4 5 6 7 8 9 10 11 12 13 14 15 16
875
FTUS46 KSEW 010520
TAFPAE
TAF
KPAE 010520Z 0106/0206 32004KT P6SM SCT025 BKN040
      TEMPO 0106/0109 BKN025 OVC040
     FM010900 12004KT P6SM VCSH BKN020 OVC120
     FM011400 15008KT P6SM -RA BKN012 BKN020 OVC035
     FM011900 18008KT P6SM SCT025 BKN035
     FM020400 14004KT P6SM BKN030=

USA.gov is the U.S. government's official web portal to all federal, state and local government web resources and services.